Aviation Digital Data Service (ADDS)

Output produced by METARs form (0441 UTC 26 June 2019)
found at http://www.aviationweather.gov/metar/data/
 
Forecast for: PGSN (SAIPAN/KOBLER , FM)
Text: PGSN 252327Z 2600/2624 10013KT P6SM SCT024
Forecast period: 0000 to 1000 UTC 26 June 2019
Forecast type: FROM: standard forecast or significant change
Winds: from the E (100 degrees) at 15 MPH (13 knots; 6.7 m/s)
Visibility: 6 or more miles 10+ km)
Ceiling: at least 12,000 feet AGL
Clouds: scattered clouds at 2400 feet AGL
Weather: no significant weather forecast for this period
Text: FM261000 08009KT P6SM FEW020 SCT050
Forecast period: 1000 UTC 26 June 2019 to 0000 UTC 27 June 2019
Forecast type: FROM: standard forecast or significant change
Winds: from the E (80 degrees) at 10 MPH (9 knots; 4.6 m/s)
Visibility: 6 or more miles 10+ km)
Ceiling: at least 12,000 feet AGL
Clouds: few clouds at 2000 feet AGL
scattered clouds at 5000 feet AGL
Weather: no significant weather forecast for this period